Time;durP1;ratioP1;P1;durP2;ratioP2;P2;SDS_P1;SDS_P2;PMS_P1;PMS_P2;Temp;Humidity;BMP_temperature;BMP_pressure;BME280_temperature;BME280_humidity;BME280_pressure;Samples;Min_cycle;Max_cycle;Signal;HPM_P1;HPM_P2
2023/12/16 00:01:23;;;;;;;10.07;7.23;;;5.50;99.90;;;;;;4976946;28;20494;-33
2023/12/16 00:03:49;;;;;;;9.93;7.40;;;5.50;99.90;;;;;;4990943;28;20198;-33
2023/12/16 00:06:18;;;;;;;10.10;7.33;;;5.40;99.90;;;;;;4984726;28;20284;-33
2023/12/16 00:08:44;;;;;;;11.07;7.77;;;5.30;99.90;;;;;;4990012;28;20245;-32
2023/12/16 00:11:09;;;;;;;10.63;7.73;;;5.20;99.90;;;;;;4990908;28;20180;-34
2023/12/16 00:13:35;;;;;;;9.83;7.50;;;5.20;99.90;;;;;;4980754;28;20189;-32
2023/12/16 00:16:01;;;;;;;10.63;7.37;;;5.10;99.90;;;;;;4974608;28;20200;-32
2023/12/16 00:18:28;;;;;;;10.70;7.33;;;5.00;99.90;;;;;;4972911;28;20182;-34
2023/12/16 00:20:53;;;;;;;9.27;6.53;;;4.90;99.90;;;;;;4991949;28;20640;-32
2023/12/16 00:23:20;;;;;;;10.13;7.27;;;4.90;99.90;;;;;;5001350;28;20235;-33
2023/12/16 00:25:45;;;;;;;12.33;7.87;;;4.90;99.90;;;;;;4972019;28;20304;-34
2023/12/16 00:28:11;;;;;;;11.70;6.83;;;4.90;99.90;;;;;;4989595;28;20278;-33
2023/12/16 00:30:37;;;;;;;10.33;7.33;;;4.90;99.90;;;;;;4997636;28;20183;-32
2023/12/16 00:33:03;;;;;;;10.10;6.90;;;4.90;99.90;;;;;;4974551;28;20190;-32
2023/12/16 00:35:29;;;;;;;9.80;7.20;;;4.90;99.90;;;;;;4972509;28;20216;-32
2023/12/16 00:37:54;;;;;;;8.77;6.97;;;4.90;99.90;;;;;;4990263;28;20190;-33
2023/12/16 00:40:20;;;;;;;8.53;6.30;;;4.90;99.90;;;;;;4987294;28;20184;-33
2023/12/16 00:42:46;;;;;;;10.80;6.43;;;4.90;99.90;;;;;;4967756;28;20266;-33
2023/12/16 00:45:12;;;;;;;9.53;7.07;;;4.90;99.90;;;;;;4978905;28;20215;-34
2023/12/16 00:47:38;;;;;;;8.00;6.60;;;4.80;99.90;;;;;;4987428;28;20274;-32
2023/12/16 00:50:05;;;;;;;8.67;6.03;;;4.70;99.90;;;;;;4984845;28;20206;-33
2023/12/16 00:52:31;;;;;;;8.83;6.07;;;4.70;99.90;;;;;;4976202;28;20187;-33
2023/12/16 00:54:57;;;;;;;9.77;6.90;;;4.60;99.90;;;;;;4986000;28;20219;-35
2023/12/16 00:57:23;;;;;;;10.97;6.80;;;4.50;99.90;;;;;;4990067;28;20236;-33
2023/12/16 00:59:48;;;;;;;7.07;5.90;;;4.50;99.90;;;;;;4989062;28;20184;-33
2023/12/16 01:02:14;;;;;;;9.10;5.50;;;4.50;99.90;;;;;;4984784;28;20199;-33
2023/12/16 01:04:40;;;;;;;7.40;5.57;;;4.40;99.90;;;;;;4985272;28;20305;-34
2023/12/16 01:07:06;;;;;;;9.20;6.43;;;4.30;99.90;;;;;;5006300;28;20180;-34
2023/12/16 01:09:32;;;;;;;7.57;5.93;;;4.30;99.90;;;;;;4983772;28;20179;-32
2023/12/16 01:11:58;;;;;;;8.27;6.50;;;4.30;99.90;;;;;;4985573;28;20218;-36
2023/12/16 01:14:24;;;;;;;10.50;6.57;;;4.30;99.90;;;;;;4973538;28;20191;-33
2023/12/16 01:16:50;;;;;;;8.47;6.47;;;4.40;99.90;;;;;;4973332;28;20186;-32
2023/12/16 01:19:16;;;;;;;8.23;6.63;;;4.40;99.90;;;;;;4979182;28;20188;-33
2023/12/16 01:21:42;;;;;;;8.93;6.80;;;4.40;99.90;;;;;;4972311;28;20278;-32
2023/12/16 01:24:09;;;;;;;9.00;6.60;;;4.30;99.90;;;;;;4970125;28;20215;-33
2023/12/16 01:26:36;;;;;;;10.43;7.33;;;4.20;99.90;;;;;;4971054;28;20180;-32
2023/12/16 01:29:02;;;;;;;8.70;6.83;;;4.10;99.90;;;;;;4988649;28;20237;-35
2023/12/16 01:31:28;;;;;;;8.73;6.87;;;4.10;99.90;;;;;;4982062;28;20186;-34
2023/12/16 01:33:53;;;;;;;10.00;7.57;;;4.10;99.90;;;;;;4962525;28;20261;-33
2023/12/16 01:36:19;;;;;;;7.97;6.30;;;4.10;99.90;;;;;;4969915;28;20250;-34
2023/12/16 01:38:46;;;;;;;10.53;7.00;;;4.10;99.90;;;;;;4986817;28;20182;-33
2023/12/16 01:41:12;;;;;;;8.13;5.93;;;4.00;99.90;;;;;;4974603;28;20190;-32
2023/12/16 01:43:37;;;;;;;8.90;6.70;;;4.00;99.90;;;;;;4970063;28;20179;-32
2023/12/16 01:46:04;;;;;;;8.60;6.33;;;4.00;99.90;;;;;;4983591;28;20271;-36
2023/12/16 01:48:32;;;;;;;9.47;6.50;;;4.00;99.90;;;;;;4976334;28;20242;-32
2023/12/16 01:50:59;;;;;;;9.67;6.67;;;4.00;99.90;;;;;;4967122;28;20185;-34
2023/12/16 01:53:27;;;;;;;7.70;5.90;;;4.00;99.90;;;;;;4989286;28;20197;-35
2023/12/16 01:55:53;;;;;;;8.20;6.40;;;4.00;99.90;;;;;;4986550;28;20279;-35
2023/12/16 01:58:20;;;;;;;9.00;6.80;;;4.00;99.90;;;;;;4978359;28;20287;-32
2023/12/16 02:00:50;;;;;;;9.33;6.67;;;4.00;99.90;;;;;;4969961;28;20279;-36
2023/12/16 02:03:18;;;;;;;9.83;6.90;;;3.90;99.90;;;;;;4976668;28;20184;-33
2023/12/16 02:05:44;;;;;;;9.73;6.93;;;3.80;99.90;;;;;;4994026;28;20311;-35
2023/12/16 02:08:09;;;;;;;9.87;6.60;;;3.80;99.90;;;;;;4987625;28;20275;-34
2023/12/16 02:10:35;;;;;;;9.20;6.47;;;3.80;99.90;;;;;;4987032;28;20181;-32
2023/12/16 02:13:02;;;;;;;8.57;6.37;;;3.80;99.90;;;;;;4971448;28;20199;-33
2023/12/16 02:15:28;;;;;;;10.17;7.20;;;3.70;99.90;;;;;;5001628;28;20211;-32
2023/12/16 02:17:54;;;;;;;9.17;7.03;;;3.70;99.90;;;;;;4987572;28;20230;-33
2023/12/16 02:20:20;;;;;;;10.17;7.00;;;3.60;99.90;;;;;;4988299;28;20216;-33
2023/12/16 02:22:47;;;;;;;9.70;6.80;;;3.60;99.90;;;;;;4960710;28;20180;-33
2023/12/16 02:25:14;;;;;;;9.43;6.70;;;3.60;99.90;;;;;;4981338;28;20212;-33
2023/12/16 02:27:44;;;;;;;9.93;6.77;;;3.60;99.90;;;;;;4976927;28;20180;-32
2023/12/16 02:30:10;;;;;;;8.80;6.60;;;3.50;99.90;;;;;;4992771;28;20218;-33
2023/12/16 02:32:36;;;;;;;8.80;6.30;;;3.50;99.90;;;;;;4990904;28;20182;-32
2023/12/16 02:35:02;;;;;;;10.00;6.67;;;3.50;99.90;;;;;;4979667;28;20228;-32
2023/12/16 02:37:29;;;;;;;8.37;6.70;;;3.50;99.90;;;;;;4982067;28;20664;-33
2023/12/16 02:39:55;;;;;;;10.70;6.67;;;3.40;99.90;;;;;;4987525;28;20226;-32
2023/12/16 02:42:21;;;;;;;12.70;7.43;;;3.40;99.90;;;;;;4998934;28;20184;-33
2023/12/16 02:44:47;;;;;;;8.87;6.63;;;3.30;99.90;;;;;;4984706;28;20216;-33
2023/12/16 02:47:13;;;;;;;9.13;6.07;;;3.10;99.90;;;;;;4971121;28;20676;-33
2023/12/16 02:49:40;;;;;;;8.33;6.97;;;3.00;99.90;;;;;;4973572;28;20180;-33
2023/12/16 02:52:06;;;;;;;8.73;6.77;;;2.90;99.90;;;;;;4993097;28;20228;-33
2023/12/16 02:54:32;;;;;;;9.97;6.60;;;2.80;99.90;;;;;;4988778;28;20271;-32
2023/12/16 02:56:58;;;;;;;10.70;7.57;;;2.80;99.90;;;;;;4985177;28;20216;-33
2023/12/16 02:59:24;;;;;;;9.87;7.07;;;2.90;99.90;;;;;;4992658;28;20222;-33
2023/12/16 03:01:49;;;;;;;9.50;6.70;;;2.90;99.90;;;;;;4989953;28;20205;-33
2023/12/16 03:04:15;;;;;;;10.10;6.80;;;2.90;99.90;;;;;;4991940;28;20207;-32
2023/12/16 03:06:45;;;;;;;11.50;7.27;;;2.90;99.90;;;;;;4983622;28;20191;-32
2023/12/16 03:09:11;;;;;;;8.00;6.37;;;2.90;99.90;;;;;;4973854;28;20191;-34
2023/12/16 03:11:38;;;;;;;8.93;6.50;;;2.90;99.90;;;;;;4974677;28;20184;-32
2023/12/16 03:14:04;;;;;;;9.10;6.90;;;2.80;99.90;;;;;;4982075;28;20244;-32
2023/12/16 03:16:33;;;;;;;9.77;7.10;;;2.80;99.90;;;;;;4965343;28;20217;-33
2023/12/16 03:18:59;;;;;;;9.63;6.97;;;2.70;99.90;;;;;;4986631;28;20266;-33
2023/12/16 03:21:25;;;;;;;8.90;6.80;;;2.70;99.90;;;;;;4992179;28;20771;-33
2023/12/16 03:23:51;;;;;;;9.90;7.03;;;2.80;99.90;;;;;;4987672;28;20189;-33
2023/12/16 03:26:17;;;;;;;9.43;6.80;;;2.90;99.90;;;;;;4981630;28;20195;-32
2023/12/16 03:28:43;;;;;;;10.33;7.40;;;2.90;99.90;;;;;;4966153;28;20176;-32
2023/12/16 03:31:08;;;;;;;10.93;7.80;;;3.00;99.90;;;;;;4986695;28;20180;-34
2023/12/16 03:33:34;;;;;;;10.30;7.63;;;3.00;99.90;;;;;;4972968;28;20185;-32
2023/12/16 03:36:00;;;;;;;10.83;7.23;;;3.10;99.90;;;;;;4966315;28;20216;-32
2023/12/16 03:38:26;;;;;;;10.77;7.33;;;3.20;99.90;;;;;;4988106;28;20184;-32
2023/12/16 03:40:51;;;;;;;10.60;7.03;;;3.20;99.90;;;;;;4973430;28;20191;-32
2023/12/16 03:43:17;;;;;;;7.93;6.20;;;3.20;99.90;;;;;;4992365;28;20195;-33
2023/12/16 03:45:43;;;;;;;7.43;5.80;;;3.20;99.90;;;;;;4989613;28;20215;-33
2023/12/16 03:48:10;;;;;;;9.00;6.13;;;3.20;99.90;;;;;;4971187;28;20188;-32
2023/12/16 03:50:35;;;;;;;6.97;5.83;;;3.20;99.90;;;;;;4990285;28;20180;-32
2023/12/16 03:53:01;;;;;;;7.00;5.40;;;3.10;99.90;;;;;;4987744;28;20188;-33
2023/12/16 03:55:27;;;;;;;7.07;5.60;;;3.20;99.90;;;;;;4982394;28;20203;-32
2023/12/16 05:17:03;;;;;;;6.50;5.10;;;3.00;99.90;;;;;;4970666;28;20223;-37
2023/12/16 05:19:29;;;;;;;6.87;5.50;;;3.10;99.90;;;;;;4956966;28;20193;-40
2023/12/16 05:21:55;;;;;;;7.23;5.67;;;3.10;99.90;;;;;;4964427;28;20223;-40
2023/12/16 05:24:21;;;;;;;7.00;5.17;;;3.00;99.90;;;;;;4950972;28;20212;-41
2023/12/16 05:29:13;;;;;;;7.93;5.70;;;3.00;99.90;;;;;;4960211;28;20224;-29
2023/12/16 05:31:39;;;;;;;7.60;5.50;;;3.00;99.90;;;;;;4948059;28;20193;-31
2023/12/16 05:34:05;;;;;;;7.70;5.57;;;3.00;99.90;;;;;;4935918;28;20178;-32
2023/12/16 05:36:31;;;;;;;6.67;5.47;;;3.00;99.90;;;;;;4938051;29;20209;-32
2023/12/16 05:38:57;;;;;;;8.53;5.70;;;3.00;99.90;;;;;;4952606;28;20280;-32
2023/12/16 05:41:23;;;;;;;8.50;6.17;;;3.10;99.90;;;;;;4935334;28;20181;-31
2023/12/16 05:43:48;;;;;;;7.33;5.57;;;3.10;99.90;;;;;;4948382;28;20250;-31
2023/12/16 05:46:14;;;;;;;8.10;6.23;;;3.10;99.90;;;;;;4958969;28;20184;-32
2023/12/16 05:48:40;;;;;;;8.47;6.17;;;3.10;99.90;;;;;;4956119;28;20208;-31
2023/12/16 05:51:06;;;;;;;8.23;5.73;;;3.10;99.90;;;;;;4972822;28;20271;-31
2023/12/16 05:53:34;;;;;;;9.30;6.50;;;3.10;99.90;;;;;;4940420;28;20180;-30
2023/12/16 05:56:00;;;;;;;8.63;6.77;;;3.10;99.90;;;;;;4940772;28;20181;-32
2023/12/16 05:58:26;;;;;;;8.20;6.03;;;3.10;99.90;;;;;;4957962;28;20196;-32
2023/12/16 06:00:52;;;;;;;8.07;6.13;;;3.10;99.90;;;;;;4941989;28;20258;-31
2023/12/16 06:03:17;;;;;;;7.77;6.27;;;3.10;99.90;;;;;;4955825;28;20251;-31
2023/12/16 06:05:43;;;;;;;9.03;6.43;;;3.20;99.90;;;;;;4942135;28;20259;-33
2023/12/16 06:08:09;;;;;;;9.73;6.20;;;3.20;99.90;;;;;;4957645;28;20341;-33
2023/12/16 06:10:35;;;;;;;8.07;6.07;;;3.20;99.90;;;;;;4942527;28;20192;-31
2023/12/16 06:13:00;;;;;;;7.53;6.07;;;3.20;99.90;;;;;;4944557;28;20277;-31
2023/12/16 06:15:26;;;;;;;8.77;6.33;;;3.20;99.90;;;;;;4963242;28;20243;-31
2023/12/16 06:17:52;;;;;;;9.10;6.43;;;3.20;99.90;;;;;;4949068;28;20300;-32
2023/12/16 06:20:18;;;;;;;8.50;6.07;;;3.30;99.90;;;;;;4977780;28;20189;-32
2023/12/16 06:22:43;;;;;;;8.97;6.43;;;3.20;99.90;;;;;;4973417;28;20184;-31
2023/12/16 06:25:09;;;;;;;8.20;5.77;;;3.30;99.90;;;;;;4944341;28;20206;-32
2023/12/16 06:27:35;;;;;;;9.47;5.63;;;3.30;99.90;;;;;;4952760;28;20268;-31
2023/12/16 06:30:02;;;;;;;7.30;5.20;;;3.30;99.90;;;;;;4937315;28;20181;-32
2023/12/16 06:32:28;;;;;;;8.90;5.83;;;3.20;99.90;;;;;;4954448;28;20184;-31
2023/12/16 06:34:54;;;;;;;6.97;5.83;;;3.20;99.90;;;;;;4956527;28;20195;-31
2023/12/16 06:37:20;;;;;;;8.03;5.47;;;3.20;99.90;;;;;;4957783;28;20201;-31
2023/12/16 06:39:46;;;;;;;7.40;5.40;;;3.10;99.90;;;;;;4954937;28;20185;-31
2023/12/16 06:42:11;;;;;;;8.93;5.87;;;3.10;99.90;;;;;;4935438;28;20272;-31
2023/12/16 06:44:37;;;;;;;6.47;4.87;;;3.10;99.90;;;;;;4956480;28;20255;-32
2023/12/16 06:47:03;;;;;;;7.10;5.13;;;3.00;99.90;;;;;;4935174;28;20329;-31
2023/12/16 06:49:29;;;;;;;6.20;4.80;;;3.00;99.90;;;;;;4939908;28;20653;-31
2023/12/16 06:51:55;;;;;;;5.97;4.70;;;3.00;99.90;;;;;;4931588;28;20185;-31
2023/12/16 06:54:22;;;;;;;6.77;5.00;;;3.00;99.90;;;;;;4949315;28;20239;-31
2023/12/16 06:56:48;;;;;;;5.90;4.73;;;3.00;99.90;;;;;;4955281;28;20188;-31
2023/12/16 06:59:13;;;;;;;5.67;4.50;;;3.00;99.90;;;;;;4957750;28;20187;-31
2023/12/16 07:01:39;;;;;;;5.33;4.07;;;3.00;99.90;;;;;;4974353;28;20180;-31
2023/12/16 07:04:05;;;;;;;5.07;4.57;;;3.00;99.90;;;;;;4939949;28;20216;-31
2023/12/16 07:06:31;;;;;;;6.03;4.80;;;3.00;99.90;;;;;;4939999;28;20189;-32
2023/12/16 07:08:57;;;;;;;6.27;4.93;;;3.00;99.90;;;;;;4955728;28;20201;-31
2023/12/16 07:11:23;;;;;;;6.63;4.80;;;3.00;99.90;;;;;;4933755;28;20187;-31
2023/12/16 07:13:49;;;;;;;6.27;5.20;;;3.00;99.90;;;;;;4975698;28;20212;-32
2023/12/16 07:16:16;;;;;;;5.17;4.60;;;3.00;99.90;;;;;;4970413;28;20184;-32
2023/12/16 07:18:42;;;;;;;6.87;5.00;;;3.00;99.90;;;;;;4951581;28;20216;-31
2023/12/16 07:21:08;;;;;;;5.23;4.37;;;3.00;99.90;;;;;;4939727;28;20189;-32
2023/12/16 07:23:35;;;;;;;6.83;5.20;;;3.00;99.90;;;;;;4961619;28;20363;-31
2023/12/16 07:26:01;;;;;;;5.63;4.80;;;3.00;99.90;;;;;;4975787;28;20279;-30
2023/12/16 07:28:27;;;;;;;6.07;4.97;;;3.00;99.90;;;;;;4963726;28;20303;-32
2023/12/16 07:30:53;;;;;;;6.93;4.90;;;3.00;99.90;;;;;;4953470;28;20184;-31
2023/12/16 07:33:19;;;;;;;6.53;5.00;;;3.00;99.90;;;;;;4936041;28;20276;-31
2023/12/16 07:35:44;;;;;;;8.03;5.13;;;3.00;99.90;;;;;;4955568;28;20184;-31
2023/12/16 07:38:10;;;;;;;7.97;4.93;;;3.00;99.90;;;;;;4940392;28;20208;-31
2023/12/16 07:40:36;;;;;;;6.93;5.40;;;3.00;99.90;;;;;;4941350;28;20231;-31
2023/12/16 07:43:03;;;;;;;7.30;5.37;;;3.00;99.90;;;;;;4942000;28;20215;-31
2023/12/16 07:45:29;;;;;;;7.60;5.47;;;3.00;99.90;;;;;;4955345;28;20220;-30
2023/12/16 07:47:55;;;;;;;8.00;4.93;;;2.90;99.90;;;;;;4973170;28;20224;-32
2023/12/16 07:50:21;;;;;;;5.97;5.17;;;2.90;99.90;;;;;;4955031;28;20176;-33
2023/12/16 07:52:47;;;;;;;7.13;4.87;;;3.00;99.90;;;;;;4938060;28;20212;-32
2023/12/16 07:55:13;;;;;;;5.27;4.23;;;3.00;99.90;;;;;;4950390;28;20247;-31
2023/12/16 07:57:39;;;;;;;6.87;4.93;;;3.00;99.90;;;;;;4935923;28;20213;-31
2023/12/16 08:00:11;;;;;;;5.30;3.93;;;3.00;99.90;;;;;;4951047;28;20264;-31
2023/12/16 08:02:39;;;;;;;5.80;4.50;;;3.00;99.90;;;;;;4949609;28;20189;-32
2023/12/16 08:05:05;;;;;;;5.97;4.60;;;3.10;99.90;;;;;;4953646;28;20295;-32
2023/12/16 08:07:31;;;;;;;4.80;4.23;;;3.10;99.90;;;;;;4938784;28;20204;-32
2023/12/16 08:09:57;;;;;;;6.67;4.43;;;3.10;99.90;;;;;;4932317;28;20189;-31
2023/12/16 08:12:27;;;;;;;4.97;4.20;;;3.10;99.90;;;;;;4929685;28;20216;-31
2023/12/16 08:14:55;;;;;;;4.87;4.20;;;3.20;99.90;;;;;;4950174;28;20189;-31
2023/12/16 08:17:25;;;;;;;11.53;8.30;;;3.20;99.90;;;;;;4962960;28;20225;-29
2023/12/16 08:19:53;;;;;;;7.17;5.13;;;3.30;99.90;;;;;;4964666;28;20283;-31
2023/12/16 08:22:21;;;;;;;5.90;4.90;;;3.30;99.90;;;;;;4935348;28;20189;-31
2023/12/16 08:24:48;;;;;;;5.73;4.03;;;3.30;99.90;;;;;;4953674;28;20197;-32
2023/12/16 08:27:14;;;;;;;6.10;4.37;;;3.30;99.90;;;;;;4934876;28;20208;-33
2023/12/16 08:29:44;;;;;;;5.07;4.33;;;3.30;99.90;;;;;;4936134;28;20213;-30
2023/12/16 08:32:11;;;;;;;6.50;5.00;;;3.40;99.90;;;;;;4955914;28;20185;-33
2023/12/16 08:34:39;;;;;;;5.70;5.00;;;3.30;99.90;;;;;;4951878;28;20188;-31
2023/12/16 08:37:06;;;;;;;6.17;4.63;;;3.40;99.90;;;;;;4975321;28;20291;-33
2023/12/16 08:39:38;;;;;;;5.63;4.70;;;3.40;99.90;;;;;;5092744;27;20550;-32
2023/12/16 08:42:05;;;;;;;8.87;4.87;;;3.40;99.90;;;;;;5065035;28;20172;-32
2023/12/16 08:44:31;;;;;;;6.23;5.27;;;3.40;99.90;;;;;;5107052;28;20623;-32
2023/12/16 08:46:58;;;;;;;6.20;4.83;;;3.40;99.90;;;;;;5106470;28;20180;-31
2023/12/16 08:49:24;;;;;;;6.93;4.90;;;3.40;99.90;;;;;;5062209;28;20238;-30
2023/12/16 08:51:53;;;;;;;6.73;5.23;;;3.40;99.90;;;;;;5057264;28;20204;-47
2023/12/16 08:54:26;;;;;;;6.23;4.73;;;3.30;99.90;;;;;;5059541;28;20185;-41
2023/12/16 08:56:56;;;;;;;5.83;4.87;;;3.40;99.90;;;;;;5075274;28;20180;-40
2023/12/16 08:59:26;;;;;;;6.63;4.67;;;3.40;99.90;;;;;;5050484;28;20212;-41
2023/12/16 09:01:53;;;;;;;6.27;4.53;;;3.40;99.90;;;;;;5065406;28;20199;-40
2023/12/16 09:04:19;;;;;;;6.17;4.83;;;3.50;99.90;;;;;;5052865;28;20181;-40
2023/12/16 09:06:45;;;;;;;6.70;4.87;;;3.50;99.90;;;;;;5076532;28;20176;-39
2023/12/16 09:09:11;;;;;;;5.20;4.40;;;3.50;99.90;;;;;;5068370;28;20185;-39
2023/12/16 09:11:38;;;;;;;6.07;5.07;;;3.60;99.90;;;;;;5067885;28;20189;-40
2023/12/16 09:14:05;;;;;;;6.47;5.13;;;3.60;99.90;;;;;;5051555;28;20231;-40
2023/12/16 09:16:35;;;;;;;6.23;4.53;;;3.70;99.90;;;;;;5069009;28;20188;-39
2023/12/16 09:19:03;;;;;;;6.43;5.10;;;3.70;99.90;;;;;;5053463;28;20967;-41
2023/12/16 09:21:29;;;;;;;5.53;4.30;;;3.70;99.90;;;;;;5052371;28;20185;-41
2023/12/16 09:23:58;;;;;;;4.63;4.17;;;3.80;99.90;;;;;;5066646;28;20216;-40
2023/12/16 09:26:24;;;;;;;5.73;4.40;;;3.80;99.90;;;;;;5066466;28;20176;-40
2023/12/16 09:28:50;;;;;;;6.00;4.67;;;3.90;99.90;;;;;;5076308;28;20209;-38
2023/12/16 09:31:16;;;;;;;6.53;4.67;;;4.00;99.90;;;;;;5060220;28;20191;-40
2023/12/16 09:33:43;;;;;;;6.87;5.80;;;4.00;99.90;;;;;;5059222;28;20238;-41
2023/12/16 09:36:13;;;;;;;8.37;7.13;;;4.10;99.90;;;;;;5056456;28;20178;-41
2023/12/16 09:38:40;;;;;;;9.47;7.10;;;4.10;99.90;;;;;;5060668;28;20219;-39
2023/12/16 09:41:24;;;;;;;9.40;6.87;;;4.10;99.90;;;;;;5101114;28;20211;-38
2023/12/16 09:43:54;;;;;;;8.47;7.03;;;4.10;99.90;;;;;;5067752;28;20180;-38
2023/12/16 09:46:33;;;;;;;8.57;6.43;;;4.20;99.90;;;;;;5065411;28;20200;-40
2023/12/16 09:49:00;;;;;;;8.23;6.40;;;4.20;99.90;;;;;;5046666;28;20273;-40
2023/12/16 09:51:37;;;;;;;11.10;8.57;;;4.20;99.90;;;;;;5057820;28;20664;-40
2023/12/16 09:54:05;;;;;;;11.33;8.60;;;4.20;99.90;;;;;;5062094;28;20186;-39
2023/12/16 09:56:37;;;;;;;11.17;7.87;;;4.20;99.90;;;;;;5059342;28;20247;-40
2023/12/16 09:59:05;;;;;;;9.63;7.77;;;4.30;99.90;;;;;;5081225;28;20222;-40
2023/12/16 10:01:35;;;;;;;10.67;7.57;;;4.30;99.90;;;;;;5054845;28;20204;-40
2023/12/16 10:04:06;;;;;;;7.40;6.20;;;4.30;99.90;;;;;;5050777;28;20200;-40
2023/12/16 10:06:32;;;;;;;7.80;6.07;;;4.30;99.90;;;;;;5042026;28;20190;-40
2023/12/16 10:09:02;;;;;;;6.10;5.50;;;4.40;99.90;;;;;;5059103;28;20203;-40
2023/12/16 10:11:29;;;;;;;8.20;6.17;;;4.50;99.90;;;;;;5061830;28;20204;-41
2023/12/16 10:14:03;;;;;;;7.53;6.10;;;4.30;99.90;;;;;;5018086;28;20196;-41
2023/12/16 10:16:29;;;;;;;7.23;5.67;;;4.30;99.90;;;;;;5051581;28;20711;-41
2023/12/16 10:18:59;;;;;;;8.33;6.17;;;4.30;99.90;;;;;;5049611;28;20201;-40
2023/12/16 10:21:33;;;;;;;7.03;5.73;;;4.40;99.90;;;;;;5038918;28;20281;-40
2023/12/16 10:24:02;;;;;;;6.30;5.23;;;4.40;99.90;;;;;;5069641;28;20209;-38
2023/12/16 10:26:35;;;;;;;5.90;5.30;;;4.50;99.90;;;;;;5043757;28;20298;-41
2023/12/16 10:29:05;;;;;;;8.00;5.73;;;4.60;99.90;;;;;;5051603;28;20319;-41
2023/12/16 10:31:39;;;;;;;6.77;5.30;;;4.60;99.90;;;;;;5045623;28;20188;-40
2023/12/16 10:34:06;;;;;;;6.80;5.63;;;4.70;99.90;;;;;;5061273;28;20206;-40
2023/12/16 10:36:32;;;;;;;8.63;5.57;;;4.80;99.90;;;;;;5056715;28;20649;-39
2023/12/16 10:38:58;;;;;;;6.43;4.87;;;4.90;99.90;;;;;;5057418;28;20297;-41
2023/12/16 10:41:24;;;;;;;6.57;5.37;;;4.90;99.90;;;;;;5057477;28;20169;-40
2023/12/16 10:43:51;;;;;;;6.50;5.57;;;5.00;99.90;;;;;;5052744;28;20198;-40
2023/12/16 10:46:19;;;;;;;6.10;5.30;;;5.10;99.90;;;;;;5051718;28;20192;-41
2023/12/16 10:48:54;;;;;;;7.43;5.30;;;5.10;99.90;;;;;;5018276;28;20306;-40
2023/12/16 10:51:21;;;;;;;7.43;5.37;;;5.20;99.90;;;;;;5050933;28;20187;-41
2023/12/16 10:54:03;;;;;;;7.53;6.07;;;5.40;99.90;;;;;;5065356;28;20189;-41
2023/12/16 10:56:30;;;;;;;6.50;5.47;;;5.50;99.90;;;;;;5048932;28;20196;-40
2023/12/16 10:58:59;;;;;;;6.87;5.57;;;5.70;99.90;;;;;;5049738;28;20712;-41
2023/12/16 11:01:29;;;;;;;6.53;5.43;;;5.80;99.90;;;;;;5033317;28;20185;-41
2023/12/16 11:04:17;;;;;;;5.93;4.57;;;6.10;99.90;;;;;;5053873;28;20264;-40
2023/12/16 11:06:51;;;;;;;5.90;4.67;;;6.30;99.90;;;;;;5066675;28;20176;-41
2023/12/16 11:09:18;;;;;;;5.20;4.70;;;6.30;99.90;;;;;;5046541;28;20180;-40
2023/12/16 11:11:45;;;;;;;5.17;4.50;;;6.40;99.90;;;;;;5051534;28;20185;-40
2023/12/16 11:14:12;;;;;;;6.10;4.83;;;6.60;99.90;;;;;;5036066;28;20196;-40
2023/12/16 11:16:52;;;;;;;4.93;4.43;;;6.70;99.90;;;;;;5065966;28;20193;-41
2023/12/16 11:19:22;;;;;;;5.83;4.90;;;6.60;99.90;;;;;;5037384;28;20208;-39
2023/12/16 11:21:49;;;;;;;5.27;4.33;;;6.70;99.90;;;;;;5051529;28;20185;-41
2023/12/16 11:24:15;;;;;;;5.80;4.67;;;6.80;99.90;;;;;;5040194;28;20187;-41
2023/12/16 11:26:41;;;;;;;4.40;4.00;;;6.70;99.90;;;;;;5043431;28;20272;-41
2023/12/16 11:29:07;;;;;;;5.70;4.20;;;6.80;99.90;;;;;;5045289;28;20208;-41
2023/12/16 11:31:35;;;;;;;5.10;4.37;;;6.90;99.90;;;;;;5049050;28;20272;-40
2023/12/16 11:34:02;;;;;;;4.97;4.47;;;7.00;99.90;;;;;;5050523;28;20209;-41
2023/12/16 11:36:55;;;;;;;4.93;4.20;;;7.00;99.90;;;;;;5032775;28;20185;-41
2023/12/16 11:39:38;;;;;;;5.00;4.17;;;7.10;99.90;;;;;;5048359;28;20220;-40
2023/12/16 11:42:06;;;;;;;4.77;4.27;;;7.20;99.90;;;;;;5046989;28;20279;-41
2023/12/16 11:44:52;;;;;;;4.77;4.20;;;7.30;99.90;;;;;;5033849;28;20285;-41
2023/12/16 11:47:20;;;;;;;4.80;4.30;;;7.30;99.90;;;;;;5049679;28;20205;-40
2023/12/16 11:49:49;;;;;;;5.93;4.60;;;7.40;99.90;;;;;;5045188;28;20173;-41
2023/12/16 11:52:22;;;;;;;5.27;4.40;;;7.50;99.90;;;;;;5040491;28;20174;-39
2023/12/16 11:54:56;;;;;;;4.83;4.03;;;7.60;99.90;;;;;;5041700;28;20181;-41
2023/12/16 11:57:23;;;;;;;4.90;4.10;;;7.60;99.90;;;;;;5051892;28;20213;-42
2023/12/16 11:59:50;;;;;;;4.57;3.93;;;7.60;99.90;;;;;;5062879;28;20180;-41
2023/12/16 12:02:16;;;;;;;5.73;4.17;;;7.80;99.90;;;;;;5052584;28;20201;-41
2023/12/16 12:04:43;;;;;;;6.07;4.00;;;7.70;99.90;;;;;;5058534;28;20204;-40
2023/12/16 12:07:09;;;;;;;3.73;3.33;;;7.80;99.90;;;;;;5034166;28;20193;-39
2023/12/16 12:09:35;;;;;;;5.87;3.70;;;7.90;99.90;;;;;;5040210;28;20657;-41
2023/12/16 12:12:02;;;;;;;4.57;3.80;;;7.90;99.90;;;;;;5044263;28;20181;-41
2023/12/16 12:14:28;;;;;;;4.37;3.03;;;7.90;99.90;;;;;;5036816;28;20273;-41
2023/12/16 12:16:53;;;;;;;4.23;2.37;;;7.90;99.90;;;;;;5041051;28;20271;-41
2023/12/16 12:19:19;;;;;;;3.70;2.47;;;7.90;99.90;;;;;;5043940;28;20208;-41
2023/12/16 12:21:45;;;;;;;7.13;2.40;;;8.00;99.90;;;;;;5052671;28;20268;-41
2023/12/16 12:24:11;;;;;;;4.87;2.60;;;8.10;99.90;;;;;;5053996;28;20273;-41
2023/12/16 12:26:37;;;;;;;3.80;2.83;;;8.20;99.90;;;;;;5049046;28;20177;-41
2023/12/16 12:29:04;;;;;;;4.90;2.80;;;8.20;99.90;;;;;;5049310;28;20212;-41
2023/12/16 12:31:30;;;;;;;4.43;3.20;;;8.30;99.90;;;;;;5052218;28;20185;-41
2023/12/16 12:33:56;;;;;;;3.33;2.63;;;8.30;99.90;;;;;;5062245;28;20211;-41
2023/12/16 12:36:23;;;;;;;5.43;3.20;;;8.40;99.90;;;;;;5041173;28;20216;-42
2023/12/16 12:38:55;;;;;;;3.97;3.10;;;8.40;99.90;;;;;;5058707;28;20289;-41
2023/12/16 12:41:21;;;;;;;5.43;2.97;;;8.30;99.90;;;;;;5035313;28;20181;-41
2023/12/16 12:43:48;;;;;;;4.33;2.67;;;8.40;99.90;;;;;;5051533;28;20230;-41
2023/12/16 12:46:17;;;;;;;4.33;2.70;;;8.60;99.90;;;;;;5049707;28;20268;-41
2023/12/16 12:48:54;;;;;;;5.43;2.70;;;8.70;99.90;;;;;;5045570;28;20197;-42
2023/12/16 12:51:20;;;;;;;6.23;3.23;;;8.80;99.90;;;;;;5038842;28;20272;-41
2023/12/16 12:53:56;;;;;;;5.97;3.97;;;8.90;99.90;;;;;;5045433;28;20741;-41
2023/12/16 12:56:21;;;;;;;7.00;4.40;;;9.00;99.90;;;;;;5039871;28;20177;-41
2023/12/16 12:58:47;;;;;;;5.43;3.90;;;9.10;99.90;;;;;;5050660;28;20225;-42
2023/12/16 13:01:15;;;;;;;4.37;3.60;;;9.10;99.90;;;;;;5047506;28;20190;-42
2023/12/16 13:03:41;;;;;;;6.00;4.43;;;9.10;99.90;;;;;;5051017;28;20647;-41
2023/12/16 13:06:07;;;;;;;6.40;4.30;;;9.10;99.90;;;;;;5081934;28;20188;-41
2023/12/16 13:08:33;;;;;;;4.67;3.53;;;9.10;99.90;;;;;;5052109;28;20217;-42
2023/12/16 13:10:59;;;;;;;5.40;3.40;;;9.10;99.90;;;;;;5063120;28;20243;-42
2023/12/16 13:13:25;;;;;;;4.70;3.13;;;9.20;99.90;;;;;;5066255;28;20187;-42
2023/12/16 13:15:53;;;;;;;7.20;5.00;;;9.20;99.90;;;;;;5034219;28;20193;-41
2023/12/16 13:18:20;;;;;;;5.47;4.10;;;9.20;99.90;;;;;;5065669;28;20205;-41
2023/12/16 13:20:45;;;;;;;6.60;4.40;;;9.20;99.90;;;;;;5051455;28;20191;-41
2023/12/16 13:23:13;;;;;;;7.17;4.70;;;9.30;99.90;;;;;;5046666;28;20725;-41
2023/12/16 13:25:40;;;;;;;7.77;4.90;;;9.30;99.90;;;;;;5051360;28;20236;-41
2023/12/16 13:28:07;;;;;;;5.90;4.40;;;9.30;99.90;;;;;;5053838;28;20259;-41
2023/12/16 13:30:33;;;;;;;6.47;4.60;;;9.50;99.90;;;;;;5036036;28;20189;-41
2023/12/16 13:33:00;;;;;;;4.93;4.20;;;9.50;99.90;;;;;;5051978;28;20191;-41
2023/12/16 13:35:26;;;;;;;6.37;4.07;;;9.50;99.90;;;;;;5054455;28;20182;-42
2023/12/16 13:37:52;;;;;;;10.90;4.90;;;9.60;99.90;;;;;;5038964;28;20217;-41
2023/12/16 13:40:19;;;;;;;7.10;4.80;;;9.40;99.90;;;;;;5051951;28;20181;-41
2023/12/16 13:42:44;;;;;;;7.67;5.63;;;9.30;99.90;;;;;;5037823;28;20175;-42
2023/12/16 13:45:11;;;;;;;8.30;4.70;;;9.30;99.90;;;;;;5037164;28;20192;-41
2023/12/16 13:47:37;;;;;;;5.50;3.70;;;9.20;99.90;;;;;;5066959;28;20202;-41
2023/12/16 13:50:04;;;;;;;5.97;4.10;;;9.20;99.90;;;;;;5054862;28;20181;-41
2023/12/16 13:52:30;;;;;;;5.50;3.63;;;9.40;99.90;;;;;;5037187;28;20234;-41
2023/12/16 13:54:56;;;;;;;4.27;3.23;;;9.50;99.90;;;;;;5053684;28;20292;-40
2023/12/16 13:57:22;;;;;;;7.83;4.03;;;9.60;99.90;;;;;;5039312;28;20227;-42
2023/12/16 13:59:51;;;;;;;6.47;3.87;;;9.60;99.90;;;;;;5032285;28;20187;-42
2023/12/16 14:02:19;;;;;;;4.00;3.13;;;9.70;99.90;;;;;;5047347;28;20189;-42
2023/12/16 14:04:46;;;;;;;5.87;3.30;;;9.70;99.90;;;;;;5029564;28;20183;-41
2023/12/16 14:07:12;;;;;;;5.43;3.57;;;9.80;99.90;;;;;;5036464;28;20205;-42
2023/12/16 14:09:38;;;;;;;4.63;3.23;;;9.60;99.90;;;;;;5032518;28;20298;-41
2023/12/16 14:12:04;;;;;;;6.63;3.40;;;9.20;99.90;;;;;;5069262;28;20250;-42
2023/12/16 14:14:30;;;;;;;7.10;4.23;;;9.10;99.90;;;;;;5050574;28;20235;-41
2023/12/16 14:16:56;;;;;;;7.90;5.17;;;8.60;99.90;;;;;;5049856;28;20276;-41